Time;durP1;ratioP1;P1;durP2;ratioP2;P2;SDS_P1;SDS_P2;PMS_P1;PMS_P2;Temp;Humidity;BMP_temperature;BMP_pressure;BME280_temperature;BME280_humidity;BME280_pressure;Samples;Min_cycle;Max_cycle;Signal;HPM_P1;HPM_P2
2023/11/18 00:00:41;;;;;;;;;;;3.50;99.90;;;;;;6643542;89;20090;-79
2023/11/18 00:10:42;;;;;;;;;;;3.30;99.90;;;;;;6646601;88;20063;-79
2023/11/18 00:20:43;;;;;;;;;;;3.30;99.90;;;;;;6645730;89;20071;-79
2023/11/18 00:30:43;;;;;;;;;;;3.50;99.90;;;;;;6644877;88;20059;-78
2023/11/18 00:40:44;;;;;;;;;;;3.70;99.90;;;;;;6645032;89;20173;-79
2023/11/18 00:50:44;;;;;;;;;;;3.90;99.90;;;;;;6634131;89;20499;-78
2023/11/18 01:00:44;;;;;;;;;;;4.00;99.90;;;;;;6632758;89;20091;-78
2023/11/18 01:10:45;;;;;;;;;;;3.90;99.90;;;;;;6648519;89;20083;-78
2023/11/18 01:20:46;;;;;;;;;;;4.00;99.90;;;;;;6633895;89;20549;-78
2023/11/18 01:30:47;;;;;;;;;;;4.00;99.90;;;;;;6657687;88;20061;-79
2023/11/18 01:40:48;;;;;;;;;;;4.30;99.90;;;;;;6639975;89;20075;-78
2023/11/18 01:50:49;;;;;;;;;;;4.30;99.90;;;;;;6653139;89;20142;-78
2023/11/18 02:00:51;;;;;;;;;;;4.50;99.90;;;;;;6650116;88;20116;-79
2023/11/18 02:10:57;;;;;;;;;;;4.50;99.90;;;;;;6634287;88;20169;-78
2023/11/18 02:20:57;;;;;;;;;;;4.50;99.90;;;;;;6642505;88;20522;-79
2023/11/18 02:31:12;;;;;;;;;;;4.60;99.90;;;;;;6637013;89;20107;-78
2023/11/18 02:41:13;;;;;;;;;;;4.70;99.90;;;;;;6636247;88;20047;-79
2023/11/18 02:51:13;;;;;;;;;;;4.80;99.90;;;;;;6645072;89;20891;-78
2023/11/18 03:11:55;;;;;;;;;;;4.80;99.90;;;;;;6690455;88;20183;-79
2023/11/18 03:21:56;;;;;;;;;;;4.90;99.90;;;;;;6690064;88;20131;-78
2023/11/18 03:31:57;;;;;;;;;;;4.80;99.90;;;;;;6689741;88;20186;-79
2023/11/18 03:41:57;;;;;;;;;;;4.80;99.90;;;;;;6685954;89;20064;-80
2023/11/18 03:51:58;;;;;;;;;;;4.90;99.90;;;;;;6693147;89;20055;-80
2023/11/18 04:01:58;;;;;;;;;;;4.80;99.90;;;;;;6686583;88;20074;-79
2023/11/18 04:11:59;;;;;;;;;;;4.80;99.90;;;;;;6689544;89;20064;-79
2023/11/18 04:21:59;;;;;;;;;;;4.70;99.90;;;;;;6688690;89;20543;-79
2023/11/18 04:32:00;;;;;;;;;;;4.70;99.90;;;;;;6690833;88;20071;-79
2023/11/18 04:42:01;;;;;;;;;;;4.70;99.90;;;;;;6690812;88;20397;-79
2023/11/18 04:52:01;;;;;;;;;;;4.70;99.90;;;;;;6689854;88;20066;-80
2023/11/18 05:02:02;;;;;;;;;;;4.70;99.90;;;;;;6686300;88;20056;-78
2023/11/18 05:12:03;;;;;;;;;;;4.70;99.90;;;;;;6692327;88;20044;-79
2023/11/18 05:22:03;;;;;;;;;;;4.60;99.90;;;;;;6691062;88;20074;-79
2023/11/18 05:32:04;;;;;;;;;;;4.50;99.90;;;;;;6694703;88;20873;-79
2023/11/18 05:42:05;;;;;;;;;;;4.60;99.90;;;;;;6685378;88;20067;-79
2023/11/18 05:52:06;;;;;;;;;;;4.60;99.90;;;;;;6689132;88;20523;-79
2023/11/18 06:02:17;;;;;;;;;;;4.70;99.90;;;;;;6685939;89;20064;-79
2023/11/18 06:12:18;;;;;;;;;;;4.70;99.90;;;;;;6673184;89;20048;-79
2023/11/18 06:22:19;;;;;;;;;;;4.80;99.90;;;;;;6672722;89;20156;-79
2023/11/18 06:32:20;;;;;;;;;;;4.80;99.90;;;;;;6673747;89;20067;-79
2023/11/18 06:42:23;;;;;;;;;;;4.90;99.90;;;;;;6692839;88;20121;-80
2023/11/18 06:52:23;;;;;;;;;;;4.90;99.90;;;;;;6695430;88;20060;-80
2023/11/18 07:02:24;;;;;;;;;;;5.00;99.90;;;;;;6700967;88;20542;-80
2023/11/18 07:12:24;;;;;;;;;;;5.10;99.90;;;;;;6706973;88;20057;-81
2023/11/18 07:22:25;;;;;;;;;;;5.20;99.90;;;;;;6700240;88;20136;-82
2023/11/18 07:32:25;;;;;;;;;;;5.40;99.90;;;;;;6702153;88;20112;-79
2023/11/18 07:42:26;;;;;;;;;;;5.50;99.90;;;;;;6688767;88;20139;-81
2023/11/18 07:52:30;;;;;;;;;;;5.50;99.90;;;;;;6695303;88;20119;-80
2023/11/18 08:02:30;;;;;;;;;;;5.70;99.90;;;;;;6699220;88;20074;-79
2023/11/18 08:12:34;;;;;;;;;;;5.70;99.90;;;;;;6696553;88;20052;-77
2023/11/18 08:22:35;;;;;;;;;;;5.90;99.90;;;;;;6693271;88;20116;-78
2023/11/18 08:32:35;;;;;;;;;;;6.00;99.90;;;;;;6691280;88;20065;-80
2023/11/18 08:42:36;;;;;;;;;;;6.00;99.90;;;;;;6693065;88;20083;-80
2023/11/18 08:52:36;;;;;;;;;;;6.10;99.90;;;;;;6694521;88;20076;-82
2023/11/18 09:03:01;;;;;;;;;;;6.20;99.90;;;;;;6736917;77;20193;-79
2023/11/18 09:13:03;;;;;;;;;;;6.20;99.90;;;;;;6702893;88;20186;-77
2023/11/18 09:23:04;;;;;;;;;;;6.20;99.90;;;;;;6697772;88;20087;-77
2023/11/18 09:33:13;;;;;;;;;;;6.20;99.90;;;;;;6702450;88;20070;-77
2023/11/18 09:43:15;;;;;;;;;;;6.20;99.90;;;;;;6704813;88;20258;-78
2023/11/18 09:53:19;;;;;;;;;;;6.20;99.90;;;;;;6694635;88;20585;-77
2023/11/18 10:03:22;;;;;;;;;;;6.20;99.90;;;;;;6701833;88;20562;-78
2023/11/18 10:13:23;;;;;;;;;;;6.40;99.90;;;;;;6697615;88;20506;-77
2023/11/18 10:23:25;;;;;;;;;;;6.60;99.90;;;;;;6688465;88;20131;-77
2023/11/18 10:33:30;;;;;;;;;;;6.70;99.90;;;;;;6703894;88;20528;-76
2023/11/18 10:43:30;;;;;;;;;;;6.80;99.90;;;;;;6703024;88;20124;-77
2023/11/18 10:53:32;;;;;;;;;;;6.80;99.90;;;;;;6709855;88;20085;-78
2023/11/18 11:03:35;;;;;;;;;;;6.80;99.90;;;;;;6707791;88;20056;-78
2023/11/18 11:13:37;;;;;;;;;;;6.80;99.90;;;;;;6714022;88;20063;-81
2023/11/18 11:23:57;;;;;;;;;;;6.80;99.90;;;;;;6719087;88;20064;-79
2023/11/18 11:33:58;;;;;;;;;;;6.70;99.90;;;;;;6711724;88;20060;-80
2023/11/18 11:43:59;;;;;;;;;;;6.80;99.90;;;;;;6702773;88;20063;-80
2023/11/18 11:54:04;;;;;;;;;;;6.80;99.90;;;;;;6712162;88;20683;-80
2023/11/18 12:04:10;;;;;;;;;;;7.00;99.90;;;;;;6708845;88;20063;-80
2023/11/18 12:14:19;;;;;;;;;;;7.10;99.90;;;;;;6718536;88;20052;-80
2023/11/18 12:24:22;;;;;;;;;;;7.10;99.90;;;;;;6728301;88;20060;-80
2023/11/18 12:34:23;;;;;;;;;;;7.20;99.90;;;;;;6710624;88;20134;-78
2023/11/18 12:44:31;;;;;;;;;;;7.10;99.90;;;;;;6715218;88;20075;-80
2023/11/18 12:54:33;;;;;;;;;;;7.10;99.90;;;;;;6710492;88;20077;-79
2023/11/18 13:04:34;;;;;;;;;;;7.30;99.90;;;;;;6697584;88;20604;-80
2023/11/18 13:14:39;;;;;;;;;;;7.40;99.90;;;;;;6698634;88;20070;-79
2023/11/18 13:24:45;;;;;;;;;;;7.50;99.90;;;;;;6714681;88;20060;-78
2023/11/18 13:34:46;;;;;;;;;;;7.40;99.90;;;;;;6713293;88;20139;-79
2023/11/18 13:44:47;;;;;;;;;;;7.50;99.90;;;;;;6714798;88;20270;-79
2023/11/18 13:54:51;;;;;;;;;;;7.50;99.90;;;;;;6713887;88;20638;-80
2023/11/18 14:04:55;;;;;;;;;;;7.50;99.90;;;;;;6715639;88;20051;-79
2023/11/18 14:14:55;;;;;;;;;;;7.50;99.90;;;;;;6715319;88;20065;-79
2023/11/18 14:24:56;;;;;;;;;;;7.50;99.90;;;;;;6719635;88;20055;-80
2023/11/18 14:34:56;;;;;;;;;;;7.50;99.90;;;;;;6699636;88;20093;-80
2023/11/18 14:44:59;;;;;;;;;;;7.50;99.90;;;;;;6693568;89;20101;-79
2023/11/18 14:55:00;;;;;;;;;;;7.50;99.90;;;;;;6704287;78;20067;-77
2023/11/18 15:05:05;;;;;;;;;;;7.40;99.90;;;;;;6695082;88;20052;-77
2023/11/18 15:15:05;;;;;;;;;;;7.40;99.90;;;;;;6694051;88;20078;-76
2023/11/18 15:25:10;;;;;;;;;;;7.40;99.90;;;;;;6700238;88;20081;-78
2023/11/18 15:35:12;;;;;;;;;;;7.40;99.90;;;;;;6694955;88;20101;-77
2023/11/18 15:45:14;;;;;;;;;;;7.30;99.90;;;;;;6701346;88;20186;-76
2023/11/18 15:55:15;;;;;;;;;;;7.30;99.90;;;;;;6698463;88;20087;-77
2023/11/18 16:05:17;;;;;;;;;;;7.40;99.90;;;;;;6699578;88;20209;-76
2023/11/18 16:15:21;;;;;;;;;;;7.40;99.90;;;;;;6694641;88;20060;-76
2023/11/18 16:25:27;;;;;;;;;;;7.40;99.90;;;;;;6697352;88;20584;-77
2023/11/18 16:35:28;;;;;;;;;;;7.30;99.90;;;;;;6696986;88;20055;-76
2023/11/18 16:45:29;;;;;;;;;;;7.30;99.90;;;;;;6701074;88;20118;-75
2023/11/18 16:55:31;;;;;;;;;;;7.40;99.90;;;;;;6704555;88;20115;-75
2023/11/18 17:05:32;;;;;;;;;;;7.40;99.90;;;;;;6697324;88;20507;-75
2023/11/18 17:15:32;;;;;;;;;;;7.40;99.90;;;;;;6695040;88;20092;-75
2023/11/18 17:25:32;;;;;;;;;;;7.40;99.90;;;;;;6692271;88;20170;-75
2023/11/18 17:35:33;;;;;;;;;;;7.40;99.90;;;;;;6694345;88;20577;-77
2023/11/18 17:45:33;;;;;;;;;;;7.40;99.90;;;;;;6697183;88;20082;-78
2023/11/18 17:55:34;;;;;;;;;;;7.50;99.90;;;;;;6698882;88;20068;-77
2023/11/18 18:05:35;;;;;;;;;;;7.60;99.90;;;;;;6698888;88;20555;-78
2023/11/18 18:15:36;;;;;;;;;;;7.60;99.90;;;;;;6698487;88;20056;-77
2023/11/18 18:25:36;;;;;;;;;;;7.70;99.90;;;;;;6698774;88;20067;-77
2023/11/18 18:35:39;;;;;;;;;;;7.80;99.90;;;;;;6700150;88;20137;-78
2023/11/18 18:45:40;;;;;;;;;;;7.80;99.90;;;;;;6705579;88;20177;-79
2023/11/18 18:55:40;;;;;;;;;;;7.90;99.90;;;;;;6700182;88;20083;-78
2023/11/18 19:05:40;;;;;;;;;;;8.20;99.90;;;;;;6699248;88;20064;-79
2023/11/18 19:15:41;;;;;;;;;;;8.40;99.90;;;;;;6697803;88;20067;-77
2023/11/18 19:25:41;;;;;;;;;;;8.50;99.90;;;;;;6701734;88;20080;-78
2023/11/18 19:35:42;;;;;;;;;;;8.70;99.90;;;;;;6708560;88;20055;-78
2023/11/18 19:45:48;;;;;;;;;;;8.80;99.90;;;;;;6706602;88;20064;-76
2023/11/18 19:55:50;;;;;;;;;;;9.10;99.90;;;;;;6712138;88;20137;-77
2023/11/18 20:05:52;;;;;;;;;;;9.10;99.90;;;;;;6702287;88;20072;-77
2023/11/18 20:15:53;;;;;;;;;;;9.10;99.90;;;;;;6699032;88;20749;-78
2023/11/18 20:25:54;;;;;;;;;;;9.30;99.90;;;;;;6703005;88;20074;-78
2023/11/18 20:35:54;;;;;;;;;;;9.40;99.90;;;;;;6697870;88;20047;-78
2023/11/18 20:45:57;;;;;;;;;;;9.50;99.90;;;;;;6703992;88;20767;-79
2023/11/18 20:55:57;;;;;;;;;;;9.60;99.90;;;;;;6715661;88;20089;-78
2023/11/18 21:05:58;;;;;;;;;;;9.80;99.90;;;;;;6710183;88;20060;-78
2023/11/18 21:15:59;;;;;;;;;;;10.10;99.90;;;;;;6704491;88;20604;-78
2023/11/18 21:25:59;;;;;;;;;;;10.20;99.90;;;;;;6703533;88;20108;-79
2023/11/18 21:35:59;;;;;;;;;;;10.30;99.90;;;;;;6701851;88;20446;-78
2023/11/18 21:46:00;;;;;;;;;;;10.50;99.90;;;;;;6698517;88;20072;-78
2023/11/18 21:56:00;;;;;;;;;;;10.50;99.90;;;;;;6687709;88;20062;-78
2023/11/18 22:06:01;;;;;;;;;;;10.40;99.90;;;;;;6707424;88;20060;-78
2023/11/18 22:16:03;;;;;;;;;;;10.30;99.90;;;;;;6711706;88;20064;-78
2023/11/18 22:26:04;;;;;;;;;;;10.40;99.90;;;;;;6707631;88;20562;-78
2023/11/18 22:36:07;;;;;;;;;;;10.40;99.90;;;;;;6701727;88;20068;-77
2023/11/18 22:46:10;;;;;;;;;;;10.40;99.90;;;;;;6698970;88;20232;-78
2023/11/18 22:56:14;;;;;;;;;;;10.50;99.90;;;;;;6703738;88;20117;-77
2023/11/18 23:06:19;;;;;;;;;;;10.50;99.90;;;;;;6706974;88;20060;-78
2023/11/18 23:16:20;;;;;;;;;;;10.50;99.90;;;;;;6707700;88;20082;-79
2023/11/18 23:26:20;;;;;;;;;;;10.50;99.90;;;;;;6714767;88;20077;-79
2023/11/18 23:36:21;;;;;;;;;;;10.70;99.90;;;;;;6712612;88;20540;-79
2023/11/18 23:46:21;;;;;;;;;;;10.60;99.90;;;;;;6709311;88;20163;-79
2023/11/18 23:56:22;;;;;;;;;;;10.60;99.90;;;;;;6711942;88;20090;-79
